createdAt,value
2017-09-07T00:00:15.315Z,81.45
2017-09-07T00:01:15.385Z,80.88
2017-09-07T00:02:15.361Z,80.79
2017-09-07T00:03:15.383Z,81.36
2017-09-07T00:04:15.401Z,81.36
2017-09-07T00:05:15.424Z,81.26
2017-09-07T00:06:15.469Z,81.65
2017-09-07T00:07:15.477Z,81.07
2017-09-07T00:08:15.497Z,81.65
2017-09-07T00:09:15.530Z,81.45
2017-09-07T00:10:15.538Z,81.36
2017-09-07T00:11:15.560Z,81.45
2017-09-07T00:12:15.582Z,82.31
2017-09-07T00:13:15.600Z,81.07
2017-09-07T00:14:15.940Z,82.12
2017-09-07T00:15:15.679Z,81.07
2017-09-07T00:16:15.666Z,80.98
2017-09-07T00:17:15.687Z,82.89
2017-09-07T00:18:15.711Z,82.03
2017-09-07T00:19:15.737Z,80.98
2017-09-07T00:20:15.810Z,81.84
2017-09-07T00:21:15.778Z,81.45
2017-09-07T00:22:15.798Z,81.55
2017-09-07T00:23:15.827Z,81.74
2017-09-07T00:24:15.849Z,82.12
2017-09-07T00:25:15.871Z,82.03
2017-09-07T00:26:15.889Z,82.22
2017-09-07T00:27:15.915Z,81.93
2017-09-07T00:28:15.935Z,82.89
2017-09-07T00:29:15.964Z,81.74
2017-09-07T00:30:15.979Z,81.36
2017-09-07T00:31:16.002Z,81.93
2017-09-07T00:32:16.035Z,81.93
2017-09-07T00:33:16.045Z,82.7
2017-09-07T00:34:16.068Z,83.17
2017-09-07T00:35:16.142Z,83.46
2017-09-07T00:36:16.112Z,82.98
2017-09-07T00:37:16.135Z,82.7
2017-09-07T00:38:16.155Z,83.17
2017-09-07T00:39:16.185Z,83.65
2017-09-07T00:40:16.197Z,84.42
2017-09-07T00:41:16.228Z,84.13
2017-09-07T00:42:16.243Z,82.79
2017-09-07T00:43:16.271Z,82.89
2017-09-07T00:44:16.293Z,83.46
2017-09-07T00:45:16.315Z,83.17
2017-09-07T00:46:16.334Z,83.08
2017-09-07T00:47:16.355Z,83.27
2017-09-07T00:48:16.379Z,82.79
2017-09-07T00:49:16.407Z,84.13
2017-09-07T00:50:16.481Z,82.98
2017-09-07T00:51:16.448Z,82.7
2017-09-07T00:52:16.476Z,83.17
2017-09-07T00:53:16.503Z,83.46
2017-09-07T00:54:16.535Z,82.51
2017-09-07T00:55:16.546Z,82.51
2017-09-07T00:56:16.583Z,83.27
2017-09-07T00:57:16.584Z,82.12
2017-09-07T00:58:16.607Z,82.41
2017-09-07T00:59:16.632Z,81.74
2017-09-07T01:00:16.653Z,81.93
2017-09-07T01:01:16.672Z,81.74
2017-09-07T01:02:16.697Z,81.26
2017-09-07T01:03:16.719Z,82.31
2017-09-07T01:04:16.743Z,82.12
2017-09-07T01:05:16.760Z,81.26
2017-09-07T01:06:16.838Z,81.16
2017-09-07T01:07:16.805Z,81.55
2017-09-07T01:08:16.826Z,82.03
2017-09-07T01:09:16.853Z,81.84
2017-09-07T01:10:16.873Z,81.55
2017-09-07T01:11:16.892Z,81.45
2017-09-07T01:12:16.916Z,81.65
2017-09-07T01:13:16.945Z,81.36
2017-09-07T01:14:16.962Z,81.65
2017-09-07T01:15:16.992Z,81.36
2017-09-07T01:16:17.012Z,81.16
2017-09-07T01:17:17.029Z,81.07
2017-09-07T01:18:17.099Z,81.36
2017-09-07T01:19:17.085Z,81.16
2017-09-07T01:20:17.095Z,81.16
2017-09-07T01:21:17.117Z,81.26
2017-09-07T01:22:17.146Z,81.93
2017-09-07T01:23:17.174Z,81.36
2017-09-07T01:24:17.184Z,81.16
2017-09-07T01:25:17.201Z,81.45
2017-09-07T01:26:17.230Z,81.93
2017-09-07T01:27:17.251Z,81.36
2017-09-07T01:28:17.271Z,81.16
2017-09-07T01:29:17.296Z,80.79
2017-09-07T01:30:17.327Z,80.4
2017-09-07T01:31:17.337Z,81.26
2017-09-07T01:32:17.369Z,81.55
2017-09-07T01:33:17.386Z,81.26
2017-09-07T01:34:17.725Z,81.26
2017-09-07T01:35:17.429Z,81.65
2017-09-07T01:36:17.450Z,81.07
2017-09-07T01:37:17.520Z,81.36
2017-09-07T01:38:17.491Z,81.07
2017-09-07T01:39:17.513Z,80.88
2017-09-07T01:40:17.538Z,81.36
2017-09-07T01:41:17.562Z,80.02
2017-09-07T01:42:17.582Z,80.5
2017-09-07T01:43:17.612Z,81.26
2017-09-07T01:44:17.625Z,81.65
2017-09-07T01:45:17.649Z,82.22
2017-09-07T01:46:17.679Z,80.69
2017-09-07T01:47:17.694Z,81.16
2017-09-07T01:48:17.715Z,81.74
2017-09-07T01:49:17.753Z,81.65
2017-09-07T01:50:17.758Z,82.22
2017-09-07T01:51:17.785Z,82.17
2017-09-07T01:52:17.801Z,81.65
2017-09-07T01:53:17.823Z,81.07
2017-09-07T01:54:17.845Z,81.07
2017-09-07T01:55:17.921Z,81.65
2017-09-07T01:56:17.890Z,82.51
2017-09-07T01:57:17.919Z,82.79
2017-09-07T01:58:17.937Z,82.7
2017-09-07T01:59:17.960Z,82.89
2017-09-07T02:00:17.980Z,82.89
2017-09-07T02:01:18.007Z,82.89
2017-09-07T02:02:18.025Z,82.89
2017-09-07T02:03:18.052Z,82.7
2017-09-07T02:04:18.073Z,82.89
2017-09-07T02:05:18.100Z,82.98
2017-09-07T02:06:18.116Z,83.37
2017-09-07T02:07:18.135Z,82.89
2017-09-07T02:08:18.162Z,82.79
2017-09-07T02:09:18.179Z,82.7
2017-09-07T02:10:18.205Z,83.08
2017-09-07T02:11:18.222Z,82.79
2017-09-07T02:12:18.254Z,82.89
2017-09-07T02:13:18.272Z,82.22
2017-09-07T02:14:18.292Z,82.89
2017-09-07T02:15:18.311Z,81.45
2017-09-07T02:16:18.385Z,82.22
2017-09-07T02:17:18.378Z,81.65
2017-09-07T02:18:18.386Z,82.12
2017-09-07T02:19:18.410Z,81.07
2017-09-07T02:20:18.423Z,81.84
2017-09-07T02:21:18.769Z,80.4
2017-09-07T02:22:18.465Z,80.5
2017-09-07T02:23:18.822Z,80.4
2017-09-07T02:24:18.509Z,80.21
2017-09-07T02:25:18.541Z,80.11
2017-09-07T02:26:18.554Z,79.93
2017-09-07T02:27:18.630Z,79.93
2017-09-07T02:28:18.597Z,80.21
2017-09-07T02:29:18.619Z,80.11
2017-09-07T02:30:18.645Z,79.83
2017-09-07T02:31:18.666Z,79.16
2017-09-07T02:32:18.686Z,78.87
2017-09-07T02:33:18.708Z,79.06
2017-09-07T02:34:18.727Z,79.06
2017-09-07T02:35:18.761Z,79.64
2017-09-07T02:36:18.781Z,80.02
2017-09-07T02:37:18.791Z,80.59
2017-09-07T02:38:18.812Z,79.93
2017-09-07T02:39:18.842Z,80.02
2017-09-07T02:40:18.865Z,80.02
2017-09-07T02:41:19.191Z,79.16
2017-09-07T02:42:18.901Z,79.73
2017-09-07T02:43:19.235Z,79.25
2017-09-07T02:44:18.951Z,80.21
2017-09-07T02:45:19.277Z,79.44
2017-09-07T02:46:18.987Z,80.11
2017-09-07T02:47:19.012Z,79.93
2017-09-07T02:48:19.032Z,80.11
2017-09-07T02:49:19.372Z,80.02
2017-09-07T02:50:19.080Z,80.02
2017-09-07T02:51:19.413Z,79.93
2017-09-07T02:52:19.123Z,79.93
2017-09-07T02:53:19.142Z,80.11
2017-09-07T02:54:19.166Z,80.11
2017-09-07T02:55:19.188Z,80.02
2017-09-07T02:56:19.209Z,79.83
2017-09-07T02:57:19.226Z,80.11
2017-09-07T02:58:19.299Z,80.21
2017-09-07T02:59:19.268Z,80.02
2017-09-07T03:00:19.292Z,79.64
2017-09-07T03:01:19.316Z,79.93
2017-09-07T03:02:19.343Z,79.35
2017-09-07T03:03:19.362Z,80.21
2017-09-07T03:04:19.382Z,80.21
2017-09-07T03:05:19.716Z,80.21
2017-09-07T03:06:19.421Z,79.93
2017-09-07T03:07:19.764Z,80.11
2017-09-07T03:08:19.470Z,80.07
2017-09-07T03:09:19.487Z,80.5
2017-09-07T03:10:19.512Z,79.73
2017-09-07T03:11:19.535Z,80.11
2017-09-07T03:12:19.563Z,80.21
2017-09-07T03:13:19.626Z,80.3
2017-09-07T03:14:19.604Z,79.73
2017-09-07T03:15:19.925Z,79.54
2017-09-07T03:16:19.644Z,80.5
2017-09-07T03:17:19.980Z,80.3
2017-09-07T03:18:19.679Z,79.93
2017-09-07T03:19:20.020Z,79.73
2017-09-07T03:20:19.732Z,79.83
2017-09-07T03:21:19.767Z,79.35
2017-09-07T03:22:19.770Z,79.5
2017-09-07T03:23:19.792Z,79.93
2017-09-07T03:24:19.816Z,79.44
2017-09-07T03:25:19.834Z,79.54
2017-09-07T03:26:20.170Z,80.07
2017-09-07T03:27:20.188Z,79.22
2017-09-07T03:28:19.895Z,79.69
2017-09-07T03:29:19.918Z,79.88
2017-09-07T03:30:20.266Z,79.31
2017-09-07T03:31:20.011Z,79.22
2017-09-07T03:32:19.993Z,78.74
2017-09-07T03:33:20.002Z,78.45
2017-09-07T03:34:20.026Z,78.45
2017-09-07T03:35:20.048Z,78.64
2017-09-07T03:36:20.068Z,78.64
2017-09-07T03:37:20.094Z,78.26
2017-09-07T03:38:20.112Z,77.97
2017-09-07T03:39:20.132Z,78.45
2017-09-07T03:40:20.164Z,78.07
2017-09-07T03:41:20.173Z,78.16
2017-09-07T03:42:20.200Z,77.97
2017-09-07T03:43:20.216Z,78.26
2017-09-07T03:44:20.238Z,78.45
2017-09-07T03:45:20.259Z,78.16
2017-09-07T03:46:20.335Z,77.69
2017-09-07T03:47:20.304Z,78.36
2017-09-07T03:48:20.323Z,77.69
2017-09-07T03:49:20.345Z,78.45
2017-09-07T03:50:20.366Z,78.16
2017-09-07T03:51:20.385Z,78.45
2017-09-07T03:52:20.413Z,78.16
2017-09-07T03:53:20.432Z,78.74
2017-09-07T03:54:20.458Z,78.64
2017-09-07T03:55:20.472Z,78.45
2017-09-07T03:56:20.495Z,78.07
2017-09-07T03:57:20.516Z,78.26
2017-09-07T03:58:20.539Z,78.36
2017-09-07T03:59:20.565Z,77.97
2017-09-07T04:00:20.598Z,78.16
2017-09-07T04:01:20.608Z,77.78
2017-09-07T04:02:20.626Z,78.26
2017-09-07T04:03:20.654Z,77.69
2017-09-07T04:04:20.667Z,77.21
2017-09-07T04:05:20.689Z,77.21
2017-09-07T04:06:20.714Z,77.5
2017-09-07T04:07:20.734Z,77.74
2017-09-07T04:08:20.757Z,77.97
2017-09-07T04:09:20.777Z,77.69
2017-09-07T04:10:20.801Z,77.87
2017-09-07T04:11:20.814Z,78.26
2017-09-07T04:12:20.840Z,77.5
2017-09-07T04:13:20.859Z,77.59
2017-09-07T04:14:20.883Z,77.59
2017-09-07T04:15:20.900Z,78.07
2017-09-07T04:16:20.924Z,77.69
2017-09-07T04:17:20.995Z,77.74
2017-09-07T04:18:20.973Z,77.78
2017-09-07T04:19:20.992Z,78.22
2017-09-07T04:20:21.012Z,77.84
2017-09-07T04:21:21.341Z,77.74
2017-09-07T04:22:21.055Z,78.45
2017-09-07T04:23:21.096Z,78.45
2017-09-07T04:24:21.093Z,78.31
2017-09-07T04:25:21.117Z,78.03
2017-09-07T04:26:21.150Z,78.31
2017-09-07T04:27:21.160Z,78.41
2017-09-07T04:28:21.183Z,78.13
2017-09-07T04:29:21.203Z,78.22
2017-09-07T04:30:21.224Z,78.6
2017-09-07T04:31:21.254Z,78.7
2017-09-07T04:32:21.317Z,78.22
2017-09-07T04:33:21.286Z,78.22
2017-09-07T04:34:21.313Z,78.22
2017-09-07T04:35:21.328Z,78.7
2017-09-07T04:36:21.357Z,78.41
2017-09-07T04:37:21.375Z,78.51
2017-09-07T04:38:21.397Z,79.08
2017-09-07T04:39:21.417Z,78.51
2017-09-07T04:40:21.437Z,78.99
2017-09-07T04:41:21.458Z,78.99
2017-09-07T04:42:21.478Z,78.31
2017-09-07T04:43:21.499Z,78.22
2017-09-07T04:44:21.836Z,78.89
2017-09-07T04:45:21.557Z,78.7
2017-09-07T04:46:21.594Z,78.51
2017-09-07T04:47:21.591Z,78.79
2017-09-07T04:48:21.658Z,78.79
2017-09-07T04:49:21.635Z,78.6
2017-09-07T04:50:21.649Z,78.41
2017-09-07T04:51:21.671Z,79.08
2017-09-07T04:52:21.701Z,78.51
2017-09-07T04:53:22.095Z,79.08
2017-09-07T04:54:21.744Z,79.36
2017-09-07T04:55:22.074Z,78.79
2017-09-07T04:56:21.780Z,79.17
2017-09-07T04:57:21.799Z,78.89
2017-09-07T04:58:21.822Z,78.89
2017-09-07T04:59:22.161Z,78.99
2017-09-07T05:00:21.864Z,78.99
2017-09-07T05:01:21.884Z,78.89
2017-09-07T05:02:21.908Z,78.31
2017-09-07T05:03:21.932Z,78.7
2017-09-07T05:04:21.949Z,79.08
2017-09-07T05:05:21.973Z,79.17
2017-09-07T05:06:22.049Z,78.7
2017-09-07T05:07:22.014Z,79.27
2017-09-07T05:08:22.035Z,79.36
2017-09-07T05:09:22.058Z,79.12
2017-09-07T05:10:22.080Z,79.17
2017-09-07T05:11:22.107Z,79.17
2017-09-07T05:12:22.121Z,79.36
2017-09-07T05:13:22.144Z,78.79
2017-09-07T05:14:22.170Z,79.17
2017-09-07T05:15:22.191Z,79.31
2017-09-07T05:16:22.217Z,79.08
2017-09-07T05:17:22.229Z,79.27
2017-09-07T05:18:22.264Z,79.08
2017-09-07T05:19:22.272Z,79.22
2017-09-07T05:20:22.299Z,79.17
2017-09-07T05:21:22.314Z,79.27
2017-09-07T05:22:22.337Z,80.04
2017-09-07T05:23:22.366Z,79.75
2017-09-07T05:24:22.429Z,79.85
2017-09-07T05:25:22.403Z,79.85
2017-09-07T05:26:22.429Z,80.27
2017-09-07T05:27:22.441Z,79.36
2017-09-07T05:28:22.466Z,80.51
2017-09-07T05:29:22.496Z,79.75
2017-09-07T05:30:22.507Z,79.75
2017-09-07T05:31:22.529Z,80.22
2017-09-07T05:32:22.556Z,80.04
2017-09-07T05:33:22.886Z,79.98
2017-09-07T05:34:22.595Z,79.94
2017-09-07T05:35:22.615Z,80.07
2017-09-07T05:36:22.639Z,80.13
2017-09-07T05:37:22.658Z,80.04
2017-09-07T05:38:22.683Z,79.75
2017-09-07T05:39:22.708Z,80.04
2017-09-07T05:40:22.772Z,80.04
2017-09-07T05:41:22.750Z,80.13
2017-09-07T05:42:22.768Z,79.79
2017-09-07T05:43:22.796Z,79.75
2017-09-07T05:44:22.810Z,79.79
2017-09-07T05:45:22.831Z,79.65
2017-09-07T05:46:22.862Z,80.51
2017-09-07T05:47:22.890Z,79.75
2017-09-07T05:48:22.898Z,79.94
2017-09-07T05:49:22.920Z,79.88
2017-09-07T05:50:22.941Z,81.18
2017-09-07T05:51:22.966Z,82.04
2017-09-07T05:52:22.986Z,83.42
2017-09-07T05:53:23.007Z,84.85
2017-09-07T05:54:23.081Z,84.62
2017-09-07T05:55:23.109Z,86.34
2017-09-07T05:56:23.070Z,86.91
2017-09-07T05:57:23.090Z,87.01
2017-09-07T05:58:23.114Z,86.68
2017-09-07T05:59:23.127Z,87.35
2017-09-07T06:00:23.155Z,89.06
2017-09-07T06:01:23.172Z,88.3
2017-09-07T06:02:23.197Z,87.44
2017-09-07T06:03:23.222Z,88.78
2017-09-07T06:04:23.237Z,87.63
2017-09-07T06:05:23.257Z,87.82
2017-09-07T06:06:23.276Z,89.25
2017-09-07T06:07:23.304Z,89.64
2017-09-07T06:08:23.331Z,89.06
2017-09-07T06:09:23.356Z,89.64
2017-09-07T06:10:23.365Z,89.73
2017-09-07T06:11:23.384Z,88.59
2017-09-07T06:12:23.720Z,88.97
2017-09-07T06:13:23.428Z,88.97
2017-09-07T06:14:23.447Z,88.01
2017-09-07T06:15:23.471Z,89.92
2017-09-07T06:16:23.488Z,90.97
2017-09-07T06:17:23.516Z,90.69
2017-09-07T06:18:23.529Z,89.64
2017-09-07T06:19:23.554Z,89.06
2017-09-07T06:20:23.574Z,89.16
2017-09-07T06:21:23.599Z,88.97
2017-09-07T06:22:23.613Z,89.16
2017-09-07T06:23:23.636Z,88.97
2017-09-07T06:24:23.654Z,88.49
2017-09-07T06:25:23.727Z,88.2
2017-09-07T06:26:23.699Z,88.68
2017-09-07T06:27:23.718Z,88.87
2017-09-07T06:28:23.790Z,88.97
2017-09-07T06:29:23.760Z,89.25
2017-09-07T06:30:23.782Z,89.16
2017-09-07T06:31:23.803Z,89.64
2017-09-07T06:32:23.824Z,88.78
2017-09-07T06:33:23.854Z,89.06
2017-09-07T06:34:23.867Z,88.2
2017-09-07T06:35:23.886Z,89.25
2017-09-07T06:36:23.906Z,88.97
2017-09-07T06:37:23.932Z,88.87
2017-09-07T06:38:24.265Z,88.97
2017-09-07T06:39:23.969Z,89.64
2017-09-07T06:40:24.044Z,88.01
2017-09-07T06:41:24.023Z,88.3
2017-09-07T06:42:24.035Z,89.25
2017-09-07T06:43:24.056Z,89.16
2017-09-07T06:44:24.080Z,89.64
2017-09-07T06:45:24.465Z,89.25
2017-09-07T06:46:24.123Z,88.49
2017-09-07T06:47:24.145Z,88.4
2017-09-07T06:48:24.479Z,88.68
2017-09-07T06:49:24.184Z,88.49
2017-09-07T06:50:24.205Z,89.45
2017-09-07T06:51:24.229Z,89.45
2017-09-07T06:52:24.247Z,88.87
2017-09-07T06:53:24.269Z,87.92
2017-09-07T06:54:24.289Z,87.54
2017-09-07T06:55:24.311Z,88.49
2017-09-07T06:56:24.329Z,90.25
2017-09-07T06:57:24.669Z,88.59
2017-09-07T06:58:24.371Z,87.63
2017-09-07T06:59:24.395Z,88.54
2017-09-07T07:00:24.418Z,88.3
2017-09-07T07:01:24.437Z,88.49
2017-09-07T07:02:24.459Z,88.92
2017-09-07T07:03:24.482Z,88.63
2017-09-07T07:04:24.501Z,87.01
2017-09-07T07:05:24.522Z,88.44
2017-09-07T07:06:24.541Z,88.63
2017-09-07T07:07:24.882Z,88.15
2017-09-07T07:08:24.586Z,88.44
2017-09-07T07:09:24.605Z,88.82
2017-09-07T07:10:24.644Z,87.87
2017-09-07T07:11:24.956Z,88.25
2017-09-07T07:12:24.677Z,87.87
2017-09-07T07:13:24.690Z,88.68
2017-09-07T07:14:24.715Z,87.34
2017-09-07T07:15:24.736Z,88.77
2017-09-07T07:16:24.762Z,86.19
2017-09-07T07:17:24.777Z,87.43
2017-09-07T07:18:24.802Z,86.76
2017-09-07T07:19:24.823Z,87.05
2017-09-07T07:20:24.888Z,87.24
2017-09-07T07:21:24.863Z,87.24
2017-09-07T07:22:24.892Z,87.91
2017-09-07T07:23:24.904Z,85.81
2017-09-07T07:24:24.931Z,86.57
2017-09-07T07:25:24.955Z,87.82
2017-09-07T07:26:24.973Z,87.24
2017-09-07T07:27:24.989Z,85.94
2017-09-07T07:28:25.013Z,86.19
2017-09-07T07:29:25.036Z,86.57
2017-09-07T07:30:25.058Z,88.1
2017-09-07T07:31:25.081Z,86.61
2017-09-07T07:32:25.099Z,87.29
2017-09-07T07:33:25.120Z,86.8
2017-09-07T07:34:25.149Z,84.84
2017-09-07T07:35:25.168Z,85.03
2017-09-07T07:36:25.344Z,84.94
2017-09-07T07:37:25.217Z,86.23
2017-09-07T07:38:25.231Z,85.71
2017-09-07T07:39:25.258Z,85.61
2017-09-07T07:40:25.280Z,84.46
2017-09-07T07:41:25.297Z,85.8
2017-09-07T07:42:25.318Z,85.13
2017-09-07T07:43:25.352Z,84.46
2017-09-07T07:44:25.677Z,85.41
2017-09-07T07:45:25.387Z,83.98
2017-09-07T07:46:25.410Z,85.22
2017-09-07T07:47:25.436Z,84.55
2017-09-07T07:48:25.455Z,84.36
2017-09-07T07:49:25.490Z,85.89
2017-09-07T07:50:25.501Z,84.55
2017-09-07T07:51:25.520Z,85.03
2017-09-07T07:52:25.547Z,84.84
2017-09-07T07:53:25.880Z,85.22
2017-09-07T07:54:25.589Z,85.22
2017-09-07T07:55:25.622Z,84.84
2017-09-07T07:56:25.660Z,84.22
2017-09-07T07:57:25.658Z,84.41
2017-09-07T07:58:25.691Z,83.64
2017-09-07T07:59:25.702Z,83.6
2017-09-07T08:00:25.734Z,83.93
2017-09-07T08:01:25.749Z,83.73
2017-09-07T08:02:25.769Z,83.93
2017-09-07T08:03:25.790Z,82.87
2017-09-07T08:04:25.815Z,82.11
2017-09-07T08:05:25.842Z,82.49
2017-09-07T08:06:25.860Z,82.3
2017-09-07T08:07:25.882Z,81.57
2017-09-07T08:08:25.909Z,81.38
2017-09-07T08:09:25.933Z,81.48
2017-09-07T08:10:25.954Z,82.01
2017-09-07T08:11:26.022Z,80.87
2017-09-07T08:12:26.006Z,82.15
2017-09-07T08:13:26.024Z,81.25
2017-09-07T08:14:26.038Z,81.92
2017-09-07T08:15:26.066Z,81.38
2017-09-07T08:16:26.090Z,82.53
2017-09-07T08:17:26.425Z,82.43
2017-09-07T08:18:26.153Z,80.52
2017-09-07T08:19:26.157Z,80.71
2017-09-07T08:20:26.195Z,80.52
2017-09-07T08:21:26.202Z,80.43
2017-09-07T08:22:26.226Z,80.33
2017-09-07T08:23:26.247Z,81.1
2017-09-07T08:24:26.276Z,80.08
2017-09-07T08:25:26.290Z,80.66
2017-09-07T08:26:26.317Z,80.47
2017-09-07T08:27:26.391Z,79.7
2017-09-07T08:28:26.365Z,79.7
2017-09-07T08:29:26.383Z,79.8
2017-09-07T08:30:26.406Z,79.7
2017-09-07T08:31:26.429Z,80.27
2017-09-07T08:32:26.459Z,80.08
2017-09-07T08:33:26.794Z,79.22
2017-09-07T08:34:26.507Z,78.78
2017-09-07T08:35:26.535Z,78.3
2017-09-07T08:36:26.549Z,78.72
2017-09-07T08:37:26.571Z,77.09
2017-09-07T08:38:26.593Z,76.52
2017-09-07T08:39:26.618Z,77.63
2017-09-07T08:40:26.646Z,76.32
2017-09-07T08:41:26.667Z,76.57
2017-09-07T08:42:26.739Z,77.4
2017-09-07T08:43:26.714Z,77.4
2017-09-07T08:44:26.738Z,78.07
2017-09-07T08:45:26.763Z,77.15
2017-09-07T08:46:26.787Z,76.82
2017-09-07T08:47:26.808Z,76.92
2017-09-07T08:48:26.831Z,77.5
2017-09-07T08:49:26.856Z,75.96
2017-09-07T08:50:26.884Z,75.96
2017-09-07T08:51:27.218Z,77.11
2017-09-07T08:52:26.976Z,77.84
2017-09-07T08:53:26.955Z,76.73
2017-09-07T08:54:26.984Z,77.31
2017-09-07T08:55:26.997Z,75.62
2017-09-07T08:56:27.018Z,75.62
2017-09-07T08:57:27.094Z,75.71
2017-09-07T08:58:27.078Z,76
2017-09-07T08:59:27.096Z,76.39
2017-09-07T09:00:27.214Z,75.33
2017-09-07T09:01:27.141Z,74.98
2017-09-07T09:02:27.163Z,74.51
2017-09-07T09:03:27.185Z,73.93
2017-09-07T09:04:27.210Z,73.07
2017-09-07T09:05:27.544Z,73.26
2017-09-07T09:06:27.255Z,74.12
2017-09-07T09:07:27.280Z,74.98
2017-09-07T09:08:27.319Z,74.06
2017-09-07T09:09:27.323Z,73.83
2017-09-07T09:10:27.352Z,73.87
2017-09-07T09:11:27.374Z,72.37
2017-09-07T09:12:27.549Z,72.37
2017-09-07T09:13:27.422Z,71.41
2017-09-07T09:14:27.451Z,71.7
2017-09-07T09:15:27.475Z,70.78
2017-09-07T09:16:27.501Z,68.79
2017-09-07T09:17:27.572Z,69.75
2017-09-07T09:18:27.544Z,68.25
2017-09-07T09:19:27.569Z,65.84
2017-09-07T09:20:27.596Z,65.5
2017-09-07T09:21:27.624Z,65.78
2017-09-07T09:22:27.747Z,63.89
2017-09-07T09:23:27.665Z,59.69
2017-09-07T09:24:27.701Z,59.52
2017-09-07T09:25:27.725Z,60.62
2017-09-07T09:26:27.741Z,60.46
2017-09-07T09:27:27.767Z,60.75
2017-09-07T09:28:27.791Z,60.84
2017-09-07T09:29:27.821Z,58.37
2017-09-07T09:30:27.854Z,59.56
2017-09-07T09:31:27.869Z,60.39
2017-09-07T09:32:27.897Z,62.13
2017-09-07T09:33:27.923Z,65.53
2017-09-07T09:34:27.999Z,65.84
2017-09-07T09:35:28.280Z,64.31
2017-09-07T09:36:27.999Z,63.25
2017-09-07T09:37:28.035Z,62.87
2017-09-07T09:38:28.047Z,61.07
2017-09-07T09:39:28.072Z,58.09
2017-09-07T09:40:28.100Z,57.13
2017-09-07T09:41:28.137Z,58.6
2017-09-07T09:42:28.151Z,58.5
2017-09-07T09:43:28.173Z,58.7
2017-09-07T09:44:28.203Z,58.12
2017-09-07T09:45:28.252Z,58.6
2017-09-07T09:46:28.255Z,58.79
2017-09-07T09:47:28.279Z,56.6
2017-09-07T09:48:28.311Z,55.35
2017-09-07T09:49:28.330Z,56.12
2017-09-07T09:50:28.408Z,54.49
2017-09-07T09:51:28.380Z,52.47
2017-09-07T09:52:28.413Z,52.66
2017-09-07T09:53:28.436Z,53.21
2017-09-07T09:54:28.462Z,53.69
2017-09-07T09:55:28.488Z,52.44
2017-09-07T09:56:28.512Z,53.38
2017-09-07T09:57:28.539Z,54.14
2017-09-07T09:58:28.569Z,53.57
2017-09-07T09:59:28.592Z,53.4
2017-09-07T10:00:28.717Z,53.98
2017-09-07T10:01:28.643Z,53.88
2017-09-07T10:02:28.676Z,52.54
2017-09-07T10:03:28.699Z,51.7
2017-09-07T10:04:28.730Z,50.73
2017-09-07T10:05:28.751Z,51.12
2017-09-07T10:06:28.776Z,50.66
2017-09-07T10:07:28.850Z,48.74
2017-09-07T10:08:28.830Z,47.7
2017-09-07T10:09:28.859Z,47.92
2017-09-07T10:10:28.884Z,45.34
2017-09-07T10:11:28.916Z,45.14
2017-09-07T10:12:28.932Z,46.28
2017-09-07T10:13:28.963Z,46.35
2017-09-07T10:14:28.989Z,45.97
2017-09-07T10:15:29.011Z,44.66
2017-09-07T10:16:29.038Z,43.62
2017-09-07T10:17:29.064Z,42.97
2017-09-07T10:18:29.094Z,42.19
2017-09-07T10:19:29.120Z,42.29
2017-09-07T10:20:29.145Z,43.64
2017-09-07T10:21:29.177Z,44.85
2017-09-07T10:22:29.199Z,45.21
2017-09-07T10:23:29.240Z,44.64
2017-09-07T10:24:29.256Z,43.6
2017-09-07T10:25:29.353Z,43.12
2017-09-07T10:26:29.315Z,44.06
2017-09-07T10:27:29.346Z,43.38
2017-09-07T10:28:29.516Z,42.35
2017-09-07T10:29:29.400Z,42.27
2017-09-07T10:30:29.427Z,42.39
2017-09-07T10:31:29.448Z,42.29
2017-09-07T10:32:29.573Z,42.19
2017-09-07T10:33:29.501Z,41.33
2017-09-07T10:34:29.532Z,40.88
2017-09-07T10:35:29.561Z,40.11
2017-09-07T10:36:29.582Z,38.48
2017-09-07T10:37:29.609Z,37.82
2017-09-07T10:38:29.640Z,37.82
2017-09-07T10:39:29.666Z,37.44
2017-09-07T10:40:30.044Z,37.44
2017-09-07T10:41:29.725Z,38.39
2017-09-07T10:42:29.758Z,38.28
2017-09-07T10:43:29.785Z,37.98
2017-09-07T10:44:29.812Z,37.92
2017-09-07T10:45:29.831Z,36.86
2017-09-07T10:46:29.865Z,37.15
2017-09-07T10:47:29.893Z,36.86
2017-09-07T10:48:29.920Z,36.66
2017-09-07T10:49:29.947Z,35.23
2017-09-07T10:50:29.976Z,35.05
2017-09-07T10:51:30.005Z,34.2
2017-09-07T10:52:30.031Z,32.76
2017-09-07T10:53:30.065Z,31.92
2017-09-07T10:54:30.090Z,32.31
2017-09-07T10:55:30.124Z,34.33
2017-09-07T10:56:30.155Z,37.17
2017-09-07T10:57:30.177Z,37.62
2017-09-07T10:58:30.202Z,35.68
2017-09-07T10:59:30.297Z,36.36
2017-09-07T11:00:30.270Z,33.97
2017-09-07T11:01:30.298Z,30.26
2017-09-07T11:02:30.466Z,31.47
2017-09-07T11:03:30.963Z,31.45
2017-09-07T11:04:30.535Z,33.94
2017-09-07T11:05:30.576Z,34.94
2017-09-07T11:06:30.597Z,33.76
2017-09-07T11:07:30.646Z,31.18
2017-09-07T11:08:30.672Z,29.68
2017-09-07T11:09:30.635Z,30.19
2017-09-07T11:10:31.076Z,30.47
2017-09-07T11:11:30.689Z,30.29
2017-09-07T11:12:30.812Z,29.41
2017-09-07T11:13:30.940Z,27.61
2017-09-07T11:14:30.794Z,26.12
2017-09-07T11:15:30.824Z,25.71
2017-09-07T11:16:30.910Z,25.62
2017-09-07T11:17:30.916Z,27.54
2017-09-07T11:18:31.213Z,30
2017-09-07T11:19:30.957Z,30.94
2017-09-07T11:20:31.135Z,33.62
2017-09-07T11:21:31.082Z,35.7
2017-09-07T11:22:31.509Z,37.5
2017-09-07T11:23:31.106Z,39.39
2017-09-07T11:24:31.123Z,37.45
2017-09-07T11:25:31.320Z,33.26
2017-09-07T11:26:31.174Z,30.44
2017-09-07T11:27:31.251Z,29.02
2017-09-07T11:28:31.638Z,27.68
2017-09-07T11:29:31.292Z,26.55
2017-09-07T11:30:31.442Z,25.89
2017-09-07T11:31:31.374Z,26.09
2017-09-07T11:32:31.418Z,25.49
2017-09-07T11:33:31.416Z,23.95
2017-09-07T11:34:31.473Z,23.32
2017-09-07T11:35:31.811Z,24.19
2017-09-07T11:36:31.553Z,25.7
2017-09-07T11:37:31.561Z,25.19
2017-09-07T11:38:31.607Z,24.83
2017-09-07T11:39:31.600Z,25.41
2017-09-07T11:40:31.650Z,24.52
2017-09-07T11:41:32.014Z,22.51
2017-09-07T11:42:31.733Z,21.88
2017-09-07T11:43:31.723Z,21.68
2017-09-07T11:44:31.747Z,21.1
2017-09-07T11:45:31.797Z,21.61
2017-09-07T11:46:31.820Z,22.85
2017-09-07T11:47:31.863Z,24.37
2017-09-07T11:48:31.829Z,25.2
2017-09-07T11:49:31.937Z,27.92
2017-09-07T11:50:31.912Z,28.63
2017-09-07T11:51:31.931Z,28.74
2017-09-07T11:52:32.098Z,27.67
2017-09-07T11:53:31.885Z,27.31
2017-09-07T11:54:31.916Z,27.48
2017-09-07T11:55:31.948Z,27.86
2017-09-07T11:56:31.981Z,26.42
2017-09-07T11:57:32.011Z,24.69
2017-09-07T11:58:32.049Z,24.05
2017-09-07T11:59:32.078Z,23.96
2017-09-07T12:00:32.428Z,23.29
2017-09-07T12:01:32.145Z,22.25
2017-09-07T12:02:32.176Z,20.9
2017-09-07T12:03:32.210Z,21.12
2017-09-07T12:04:32.240Z,21.31
2017-09-07T12:05:32.275Z,21.03
2017-09-07T12:06:32.302Z,20.53
2017-09-07T12:07:32.338Z,21.49
2017-09-07T12:08:32.420Z,20.51
2017-09-07T12:09:32.400Z,20.23
2017-09-07T12:10:32.435Z,18.68
2017-09-07T12:11:32.484Z,18.23
2017-09-07T12:12:32.812Z,18.82
2017-09-07T12:13:32.540Z,19.18
2017-09-07T12:14:32.573Z,19.67
2017-09-07T12:15:32.601Z,18.62
2017-09-07T12:16:32.648Z,18.15
2017-09-07T12:17:32.671Z,18.82
2017-09-07T12:18:32.909Z,18.7
2017-09-07T12:19:32.751Z,17.55
2017-09-07T12:20:32.778Z,17.38
2017-09-07T12:21:32.821Z,17.66
2017-09-07T12:22:32.847Z,17.66
2017-09-07T12:23:32.924Z,20.1
2017-09-07T12:24:32.910Z,21.8
2017-09-07T12:25:32.948Z,22.17
2017-09-07T12:26:32.977Z,21.67
2017-09-07T12:27:33.015Z,20.82
2017-09-07T12:28:33.148Z,21.11
2017-09-07T12:29:33.082Z,21.01
2017-09-07T12:30:33.125Z,21.8
2017-09-07T12:31:33.161Z,23.72
2017-09-07T12:32:33.188Z,26.1
2017-09-07T12:33:33.224Z,27.53
2017-09-07T12:34:33.572Z,29.05
2017-09-07T12:35:33.290Z,30.97
2017-09-07T12:36:33.318Z,32.2
2017-09-07T12:37:33.366Z,33.04
2017-09-07T12:38:33.387Z,34.55
2017-09-07T12:39:33.467Z,36.28
2017-09-07T12:40:33.448Z,37.04
2017-09-07T12:41:33.478Z,38.54
2017-09-07T12:42:33.511Z,39.97
2017-09-07T12:43:33.541Z,40.53
2017-09-07T12:44:33.577Z,41.38
2017-09-07T12:45:33.603Z,42.61
2017-09-07T12:46:33.638Z,42.97
2017-09-07T12:47:33.666Z,43.85
2017-09-07T12:48:33.700Z,44.4
2017-09-07T12:49:33.730Z,44.69
2017-09-07T12:50:33.752Z,45.63
2017-09-07T12:51:33.783Z,46.69
2017-09-07T12:52:33.964Z,48.61
2017-09-07T12:53:33.844Z,54.56
2017-09-07T12:54:33.922Z,58.02
2017-09-07T12:55:33.904Z,58.31